Time;durP1;ratioP1;P1;durP2;ratioP2;P2;SDS_P1;SDS_P2;PMS_P1;PMS_P2;Temp;Humidity;BMP_temperature;BMP_pressure;BME280_temperature;BME280_humidity;BME280_pressure;Samples;Min_cycle;Max_cycle;Signal;HPM_P1;HPM_P2
2021/04/11 00:00:53;;;;;;;;;;;;;;;;;;5072486;28;19916;-85
2021/04/11 00:03:22;;;;;;;;;;;;;;;;;;5055489;28;19952;-84
2021/04/11 00:05:48;;;;;;;;;;;;;;;;;;5056046;28;19923;-85
2021/04/11 00:08:13;;;;;;;;;;;;;;;;;;5055119;28;19999;-84
2021/04/11 00:10:40;;;;;;;;;;;;;;;;;;5055622;28;19917;-84
2021/04/11 00:13:07;;;;;;;;;;;;;;;;;;5055920;28;19920;-85
2021/04/11 00:15:33;;;;;;;;;;;;;;;;;;5056146;28;19962;-84
2021/04/11 00:18:01;;;;;;;;;;;;;;;;;;5038665;28;19912;-84
2021/04/11 00:20:27;;;;;;;;;;;;;;;;;;5055914;28;19912;-84
2021/04/11 00:22:52;;;;;;;;;;;;;;;;;;5055440;28;19916;-84
2021/04/11 00:25:19;;;;;;;;;;;;;;;;;;5039269;28;19913;-84
2021/04/11 00:27:44;;;;;;;;;;;;;;;;;;5038377;28;19974;-84
2021/04/11 00:30:10;;;;;;;;;;;;;;;;;;5056648;28;19947;-90
2021/04/11 00:32:38;;;;;;;;;;;;;;;;;;5039856;28;19912;-89
2021/04/11 00:35:04;;;;;;;;;;;;;;;;;;5039921;28;19912;-89
2021/04/11 00:37:30;;;;;;;;;;;;;;;;;;5040020;28;19920;-87
2021/04/11 00:39:59;;;;;;;;;;;;;;;;;;5039735;28;19993;-88
2021/04/11 00:42:34;;;;;;;;;;;;;;;;;;5056096;28;20031;-89
2021/04/11 00:45:28;;;;;;;;;;;;;;;;;;5039414;28;20416;-88
2021/04/11 00:47:55;;;;;;;;;;;;;;;;;;5046521;28;19920;-87
2021/04/11 00:50:26;;;;;;;;;;;;;;;;;;5056425;28;19966;-88
2021/04/11 00:52:53;;;;;;;;;;;;;;;;;;5052757;28;20362;-87
2021/04/11 00:55:21;;;;;;;;;;;;;;;;;;5069198;28;19935;-88
2021/04/11 00:57:47;;;;;;;;;;;;;;;;;;5069227;28;19913;-88
2021/04/11 01:00:18;;;;;;;;;;;;;;;;;;5054089;28;20351;-87
2021/04/11 01:02:45;;;;;;;;;;;;;;;;;;5055423;28;19917;-88
2021/04/11 01:05:35;;;;;;;;;;;;;;;;;;5039285;28;19916;-88
2021/04/11 01:08:10;;;;;;;;;;;;;;;;;;5061494;28;20382;-87
2021/04/11 01:10:35;;;;;;;;;;;;;;;;;;5055593;28;19912;-87
2021/04/11 01:13:06;;;;;;;;;;;;;;;;;;5071439;28;19973;-87
2021/04/11 01:15:33;;;;;;;;;;;;;;;;;;5055183;28;19924;-87
2021/04/11 01:17:58;;;;;;;;;;;;;;;;;;5038999;28;19920;-87
2021/04/11 01:20:25;;;;;;;;;;;;;;;;;;5038683;28;19916;-86
2021/04/11 01:22:56;;;;;;;;;;;;;;;;;;5055355;28;19969;-87
2021/04/11 01:25:25;;;;;;;;;;;;;;;;;;5071873;28;19944;-87
2021/04/11 01:27:53;;;;;;;;;;;;;;;;;;5038637;28;20070;-87
2021/04/11 01:30:20;;;;;;;;;;;;;;;;;;5038524;28;19913;-86
2021/04/11 01:32:49;;;;;;;;;;;;;;;;;;5038424;28;20453;-88
2021/04/11 01:35:15;;;;;;;;;;;;;;;;;;5038337;28;19913;-88
2021/04/11 01:37:42;;;;;;;;;;;;;;;;;;5038378;28;20370;-87
2021/04/11 01:40:10;;;;;;;;;;;;;;;;;;5054427;28;20451;-86
2021/04/11 01:42:35;;;;;;;;;;;;;;;;;;5054576;28;19989;-86
2021/04/11 01:45:01;;;;;;;;;;;;;;;;;;5037821;28;20374;-86
2021/04/11 01:47:27;;;;;;;;;;;;;;;;;;5038215;28;19917;-86
2021/04/11 01:49:54;;;;;;;;;;;;;;;;;;5054876;28;19988;-87
2021/04/11 01:52:21;;;;;;;;;;;;;;;;;;5037658;28;19997;-86
2021/04/11 01:54:48;;;;;;;;;;;;;;;;;;5037478;28;19919;-86
2021/04/11 01:57:23;;;;;;;;;;;;;;;;;;5037461;28;19913;-86
2021/04/11 01:59:49;;;;;;;;;;;;;;;;;;5037800;28;19978;-86
2021/04/11 02:02:16;;;;;;;;;;;;;;;;;;5037239;28;20516;-86
2021/04/11 02:04:44;;;;;;;;;;;;;;;;;;5054713;28;19952;-86
2021/04/11 02:07:11;;;;;;;;;;;;;;;;;;5054531;28;19960;-86
2021/04/11 02:09:38;;;;;;;;;;;;;;;;;;5037622;28;20017;-85
2021/04/11 02:12:06;;;;;;;;;;;;;;;;;;5037055;28;19916;-85
2021/04/11 02:14:32;;;;;;;;;;;;;;;;;;5071194;28;19916;-86
2021/04/11 02:16:58;;;;;;;;;;;;;;;;;;5054659;28;20015;-86
2021/04/11 02:19:27;;;;;;;;;;;;;;;;;;5038276;28;19919;-87
2021/04/11 02:22:00;;;;;;;;;;;;;;;;;;5038022;28;20362;-87
2021/04/11 02:24:27;;;;;;;;;;;;;;;;;;5037906;28;19966;-87
2021/04/11 02:26:53;;;;;;;;;;;;;;;;;;5057478;28;19916;-87
2021/04/11 02:29:21;;;;;;;;;;;;;;;;;;5058496;28;19962;-88
2021/04/11 02:31:49;;;;;;;;;;;;;;;;;;5041687;28;19912;-88
2021/04/11 02:34:23;;;;;;;;;;;;;;;;;;5075238;28;19920;-88
2021/04/11 02:36:50;;;;;;;;;;;;;;;;;;5058495;28;20461;-89
2021/04/11 02:39:20;;;;;;;;;;;;;;;;;;5058328;28;19966;-88
2021/04/11 02:41:47;;;;;;;;;;;;;;;;;;5058170;28;19912;-87
2021/04/11 02:44:15;;;;;;;;;;;;;;;;;;5058203;28;19920;-87
2021/04/11 02:46:41;;;;;;;;;;;;;;;;;;5058468;28;19928;-88
2021/04/11 02:49:08;;;;;;;;;;;;;;;;;;5058828;28;19912;-88
2021/04/11 02:51:35;;;;;;;;;;;;;;;;;;5058473;28;19912;-88
2021/04/11 02:54:04;;;;;;;;;;;;;;;;;;5075423;28;19993;-88
2021/04/11 02:56:32;;;;;;;;;;;;;;;;;;5058456;28;20317;-89
2021/04/11 02:58:59;;;;;;;;;;;;;;;;;;5058159;28;20418;-88
2021/04/11 03:01:27;;;;;;;;;;;;;;;;;;5074971;28;19916;-88
2021/04/11 03:03:56;;;;;;;;;;;;;;;;;;5058280;28;20320;-89
2021/04/11 03:06:26;;;;;;;;;;;;;;;;;;5058301;28;20439;-89
2021/04/11 03:08:52;;;;;;;;;;;;;;;;;;5058326;28;19916;-89
2021/04/11 03:11:26;;;;;;;;;;;;;;;;;;5040886;28;19957;-89
2021/04/11 03:13:54;;;;;;;;;;;;;;;;;;5041389;28;19924;-88
2021/04/11 03:16:19;;;;;;;;;;;;;;;;;;5058127;28;19923;-88
2021/04/11 03:18:45;;;;;;;;;;;;;;;;;;5058197;28;20010;-88
2021/04/11 03:21:11;;;;;;;;;;;;;;;;;;5041439;28;19962;-87
2021/04/11 03:23:39;;;;;;;;;;;;;;;;;;5057824;28;19912;-88
2021/04/11 03:26:20;;;;;;;;;;;;;;;;;;5040730;28;19923;-88
2021/04/11 03:28:49;;;;;;;;;;;;;;;;;;5057309;28;19948;-88
2021/04/11 03:31:40;;;;;;;;;;;;;;;;;;5040562;28;20328;-88
2021/04/11 03:34:08;;;;;;;;;;;;;;;;;;5051813;28;20016;-87
2021/04/11 03:36:35;;;;;;;;;;;;;;;;;;5040344;28;19913;-88
2021/04/11 03:39:02;;;;;;;;;;;;;;;;;;5057751;28;19913;-88
2021/04/11 03:41:29;;;;;;;;;;;;;;;;;;5040656;28;19916;-88
2021/04/11 03:43:55;;;;;;;;;;;;;;;;;;5040491;28;19920;-88
2021/04/11 03:46:27;;;;;;;;;;;;;;;;;;5073970;28;19917;-87
2021/04/11 03:49:06;;;;;;;;;;;;;;;;;;5040589;28;19912;-88
2021/04/11 03:51:36;;;;;;;;;;;;;;;;;;5074102;28;19916;-88
2021/04/11 03:54:10;;;;;;;;;;;;;;;;;;5056726;28;19920;-88
2021/04/11 03:56:38;;;;;;;;;;;;;;;;;;5056908;28;19916;-88
2021/04/11 03:59:06;;;;;;;;;;;;;;;;;;5056996;28;19913;-88
2021/04/11 04:01:39;;;;;;;;;;;;;;;;;;5055828;28;19916;-85
2021/04/11 04:04:14;;;;;;;;;;;;;;;;;;5039291;28;19917;-85
2021/04/11 04:06:39;;;;;;;;;;;;;;;;;;5055497;28;19917;-85
2021/04/11 04:09:06;;;;;;;;;;;;;;;;;;5072366;28;19939;-84
2021/04/11 04:11:31;;;;;;;;;;;;;;;;;;5039083;28;20197;-85
2021/04/11 04:14:12;;;;;;;;;;;;;;;;;;5089403;28;20011;-85
2021/04/11 04:16:37;;;;;;;;;;;;;;;;;;5072829;28;19920;-86
2021/04/11 04:19:20;;;;;;;;;;;;;;;;;;5055827;28;20294;-86
2021/04/11 04:21:52;;;;;;;;;;;;;;;;;;5055655;28;19916;-85
2021/04/11 04:24:17;;;;;;;;;;;;;;;;;;5055136;28;19920;-86
2021/04/11 04:26:47;;;;;;;;;;;;;;;;;;5072648;28;19912;-86
2021/04/11 04:29:13;;;;;;;;;;;;;;;;;;5055750;28;19931;-85
2021/04/11 04:31:38;;;;;;;;;;;;;;;;;;5055422;28;19916;-85
2021/04/11 04:34:22;;;;;;;;;;;;;;;;;;5055629;28;19916;-85
2021/04/11 04:36:52;;;;;;;;;;;;;;;;;;5055251;28;19912;-85
2021/04/11 04:39:24;;;;;;;;;;;;;;;;;;5055802;28;19912;-86
2021/04/11 04:41:55;;;;;;;;;;;;;;;;;;5055547;28;19920;-86
2021/04/11 04:44:33;;;;;;;;;;;;;;;;;;5055083;28;20442;-86
2021/04/11 04:47:10;;;;;;;;;;;;;;;;;;5055419;28;19913;-86
2021/04/11 04:49:41;;;;;;;;;;;;;;;;;;5055176;28;20362;-86
2021/04/11 04:52:10;;;;;;;;;;;;;;;;;;5055242;28;20393;-86
2021/04/11 04:54:37;;;;;;;;;;;;;;;;;;5055311;28;19924;-85
2021/04/11 04:57:06;;;;;;;;;;;;;;;;;;5055243;28;19999;-86
2021/04/11 04:59:43;;;;;;;;;;;;;;;;;;5054936;28;19917;-86
2021/04/11 05:02:12;;;;;;;;;;;;;;;;;;5037627;28;19917;-85
2021/04/11 05:04:37;;;;;;;;;;;;;;;;;;5038410;28;19916;-85
2021/04/11 05:07:08;;;;;;;;;;;;;;;;;;5037952;28;19935;-86
2021/04/11 05:09:39;;;;;;;;;;;;;;;;;;5035069;28;19967;-85
2021/04/11 05:12:05;;;;;;;;;;;;;;;;;;5051756;28;19916;-85
2021/04/11 05:14:59;;;;;;;;;;;;;;;;;;5071542;28;20267;-84
2021/04/11 05:17:45;;;;;;;;;;;;;;;;;;5044830;28;19917;-84
2021/04/11 05:20:11;;;;;;;;;;;;;;;;;;5051422;28;19916;-84
2021/04/11 05:22:39;;;;;;;;;;;;;;;;;;5068241;28;19912;-84
2021/04/11 05:25:10;;;;;;;;;;;;;;;;;;5051251;28;19924;-84
2021/04/11 05:27:38;;;;;;;;;;;;;;;;;;5075313;28;19999;-84
2021/04/11 05:30:06;;;;;;;;;;;;;;;;;;5038080;28;19939;-85
2021/04/11 05:32:31;;;;;;;;;;;;;;;;;;5037843;28;19931;-84
2021/04/11 05:34:57;;;;;;;;;;;;;;;;;;5037367;28;19916;-84
2021/04/11 05:37:22;;;;;;;;;;;;;;;;;;5071291;28;20007;-84
2021/04/11 05:39:49;;;;;;;;;;;;;;;;;;5054552;28;20004;-85
2021/04/11 05:42:21;;;;;;;;;;;;;;;;;;5054180;28;19943;-84
2021/04/11 05:44:47;;;;;;;;;;;;;;;;;;5053998;28;20487;-84
2021/04/11 05:47:33;;;;;;;;;;;;;;;;;;5037630;28;20015;-84
2021/04/11 05:50:05;;;;;;;;;;;;;;;;;;5023512;28;19962;-85
2021/04/11 05:52:51;;;;;;;;;;;;;;;;;;5054352;28;20385;-85
2021/04/11 05:55:17;;;;;;;;;;;;;;;;;;5053733;28;19917;-84
2021/04/11 05:57:43;;;;;;;;;;;;;;;;;;5071324;28;19935;-85
2021/04/11 06:00:18;;;;;;;;;;;;;;;;;;5056449;28;19940;-85
2021/04/11 06:02:48;;;;;;;;;;;;;;;;;;5047511;28;20325;-85
2021/04/11 06:05:19;;;;;;;;;;;;;;;;;;5041644;28;20255;-85
2021/04/11 06:07:49;;;;;;;;;;;;;;;;;;5041919;28;19970;-85
2021/04/11 06:10:35;;;;;;;;;;;;;;;;;;5058635;28;19924;-86
2021/04/11 06:13:00;;;;;;;;;;;;;;;;;;5074615;28;19975;-86
2021/04/11 06:15:26;;;;;;;;;;;;;;;;;;5058209;28;20410;-85
2021/04/11 06:17:52;;;;;;;;;;;;;;;;;;5091683;28;19920;-85
2021/04/11 06:20:20;;;;;;;;;;;;;;;;;;5091485;28;19916;-85
2021/04/11 06:22:48;;;;;;;;;;;;;;;;;;5108867;28;19962;-85
2021/04/11 06:25:17;;;;;;;;;;;;;;;;;;5091424;28;20010;-85
2021/04/11 06:27:55;;;;;;;;;;;;;;;;;;5091676;28;19912;-86
2021/04/11 06:30:27;;;;;;;;;;;;;;;;;;5074248;28;19920;-85
2021/04/11 06:32:53;;;;;;;;;;;;;;;;;;5074331;28;19966;-86
2021/04/11 06:35:48;;;;;;;;;;;;;;;;;;5091373;28;19919;-86
2021/04/11 06:38:14;;;;;;;;;;;;;;;;;;5057758;28;19967;-87
2021/04/11 06:41:01;;;;;;;;;;;;;;;;;;5074500;28;19916;-87
2021/04/11 06:43:46;;;;;;;;;;;;;;;;;;5091441;28;19931;-86
2021/04/11 06:46:32;;;;;;;;;;;;;;;;;;5091494;28;19919;-86
2021/04/11 06:49:16;;;;;;;;;;;;;;;;;;5071011;28;19931;-86
2021/04/11 06:51:48;;;;;;;;;;;;;;;;;;5057211;28;19913;-86
2021/04/11 06:54:43;;;;;;;;;;;;;;;;;;5040234;28;19919;-84
2021/04/11 06:57:21;;;;;;;;;;;;;;;;;;5051921;28;19917;-87
2021/04/11 07:00:22;;;;;;;;;;;;;;;;;;5046327;28;19916;-84
2021/04/11 07:03:06;;;;;;;;;;;;;;;;;;5006186;28;19917;-86
2021/04/11 07:05:50;;;;;;;;;;;;;;;;;;5050379;28;20374;-87
2021/04/11 07:08:34;;;;;;;;;;;;;;;;;;5059338;28;20450;-87
2021/04/11 07:11:19;;;;;;;;;;;;;;;;;;5106764;28;19919;-85
2021/04/11 07:13:45;;;;;;;;;;;;;;;;;;5090579;28;19920;-85
2021/04/11 07:16:10;;;;;;;;;;;;;;;;;;5056995;28;20007;-84
2021/04/11 07:18:42;;;;;;;;;;;;;;;;;;5073506;28;20002;-85
2021/04/11 07:21:27;;;;;;;;;;;;;;;;;;5056875;28;19966;-85
2021/04/11 07:24:11;;;;;;;;;;;;;;;;;;5056721;28;19995;-85
2021/04/11 07:26:38;;;;;;;;;;;;;;;;;;5056861;28;19920;-84
2021/04/11 07:29:10;;;;;;;;;;;;;;;;;;5056753;28;19916;-85
2021/04/11 07:31:50;;;;;;;;;;;;;;;;;;5072937;28;19913;-85
2021/04/11 07:34:35;;;;;;;;;;;;;;;;;;5073866;28;19966;-84
2021/04/11 07:37:07;;;;;;;;;;;;;;;;;;5073353;28;19912;-84
2021/04/11 07:39:39;;;;;;;;;;;;;;;;;;5039740;28;19913;-84
2021/04/11 07:42:07;;;;;;;;;;;;;;;;;;5073102;28;19920;-84
2021/04/11 07:44:41;;;;;;;;;;;;;;;;;;5074238;28;19920;-84
2021/04/11 07:47:13;;;;;;;;;;;;;;;;;;5039502;28;19920;-83
2021/04/11 07:49:51;;;;;;;;;;;;;;;;;;5056131;28;19935;-85
2021/04/11 07:52:39;;;;;;;;;;;;;;;;;;5073139;28;20042;-84
2021/04/11 07:55:25;;;;;;;;;;;;;;;;;;5047627;28;19912;-85
2021/04/11 07:57:53;;;;;;;;;;;;;;;;;;5025984;28;19923;-85
2021/04/11 08:00:37;;;;;;;;;;;;;;;;;;5055985;28;20011;-85
2021/04/11 08:03:14;;;;;;;;;;;;;;;;;;5055552;28;19962;-84
2021/04/11 08:05:58;;;;;;;;;;;;;;;;;;5039390;28;19919;-87
2021/04/11 08:08:33;;;;;;;;;;;;;;;;;;5056608;28;19913;-89
2021/04/11 08:11:18;;;;;;;;;;;;;;;;;;5056816;28;19912;-87
2021/04/11 08:14:04;;;;;;;;;;;;;;;;;;5073398;28;19921;-88
2021/04/11 08:16:36;;;;;;;;;;;;;;;;;;5055196;28;19921;-88
2021/04/11 08:19:04;;;;;;;;;;;;;;;;;;5089110;28;20015;-88
2021/04/11 08:21:34;;;;;;;;;;;;;;;;;;5073862;28;20706;-86
2021/04/11 08:24:00;;;;;;;;;;;;;;;;;;5038395;28;19965;-87
2021/04/11 08:26:25;;;;;;;;;;;;;;;;;;5089846;28;19923;-87
2021/04/11 08:28:50;;;;;;;;;;;;;;;;;;5089776;28;20278;-87
2021/04/11 08:31:17;;;;;;;;;;;;;;;;;;5089192;28;20334;-87
2021/04/11 08:33:42;;;;;;;;;;;;;;;;;;5106734;28;19924;-87
2021/04/11 08:36:29;;;;;;;;;;;;;;;;;;5106661;28;19912;-86
2021/04/11 08:39:10;;;;;;;;;;;;;;;;;;5089378;28;19920;-87
2021/04/11 08:42:01;;;;;;;;;;;;;;;;;;5089711;28;19913;-86
2021/04/11 08:44:36;;;;;;;;;;;;;;;;;;5047195;28;19925;-86
2021/04/11 08:47:20;;;;;;;;;;;;;;;;;;5089006;28;19912;-87
2021/04/11 08:49:53;;;;;;;;;;;;;;;;;;5089327;28;19916;-86
2021/04/11 08:52:38;;;;;;;;;;;;;;;;;;5071970;28;19999;-87
2021/04/11 08:55:05;;;;;;;;;;;;;;;;;;5038631;28;19912;-86
2021/04/11 08:57:49;;;;;;;;;;;;;;;;;;5038933;28;19916;-86
2021/04/11 09:00:23;;;;;;;;;;;;;;;;;;5088790;28;19920;-87
2021/04/11 09:02:55;;;;;;;;;;;;;;;;;;5043446;28;19913;-86
2021/04/11 09:05:41;;;;;;;;;;;;;;;;;;5068575;28;19917;-86
2021/04/11 09:08:14;;;;;;;;;;;;;;;;;;5035287;28;19947;-87
2021/04/11 09:10:54;;;;;;;;;;;;;;;;;;5068812;28;19916;-87
2021/04/11 09:13:28;;;;;;;;;;;;;;;;;;5068016;28;19917;-87
2021/04/11 09:16:05;;;;;;;;;;;;;;;;;;5053285;28;19916;-87
2021/04/11 09:18:39;;;;;;;;;;;;;;;;;;5055304;28;20065;-87
2021/04/11 09:21:14;;;;;;;;;;;;;;;;;;5072346;28;20673;-87
2021/04/11 09:23:58;;;;;;;;;;;;;;;;;;5088605;28;20366;-87
2021/04/11 09:26:41;;;;;;;;;;;;;;;;;;5088404;28;20274;-87
2021/04/11 09:29:39;;;;;;;;;;;;;;;;;;5071680;28;20011;-89
2021/04/11 09:32:07;;;;;;;;;;;;;;;;;;5071603;28;20429;-88
2021/04/11 09:34:41;;;;;;;;;;;;;;;;;;5105433;28;19913;-88
2021/04/11 09:37:25;;;;;;;;;;;;;;;;;;5071820;28;19913;-88
2021/04/11 09:39:50;;;;;;;;;;;;;;;;;;5105229;28;19939;-88
2021/04/11 09:42:21;;;;;;;;;;;;;;;;;;5087818;28;20391;-86
2021/04/11 09:45:06;;;;;;;;;;;;;;;;;;5086994;28;21549;-86
2021/04/11 09:47:50;;;;;;;;;;;;;;;;;;5087929;28;19919;-86
2021/04/11 09:50:34;;;;;;;;;;;;;;;;;;5088023;28;19919;-86
2021/04/11 09:53:03;;;;;;;;;;;;;;;;;;5087770;28;19966;-87
2021/04/11 09:55:28;;;;;;;;;;;;;;;;;;5088402;28;19923;-87
2021/04/11 09:57:56;;;;;;;;;;;;;;;;;;5087981;28;19916;-88
2021/04/11 10:00:25;;;;;;;;;;;;;;;;;;5088277;28;20452;-87
2021/04/11 10:03:00;;;;;;;;;;;;;;;;;;5087627;28;20382;-87
2021/04/11 10:05:25;;;;;;;;;;;;;;;;;;5054187;28;19935;-87
2021/04/11 10:08:00;;;;;;;;;;;;;;;;;;5071035;28;19912;-88
2021/04/11 10:10:44;;;;;;;;;;;;;;;;;;5053673;28;19920;-85
2021/04/11 10:13:28;;;;;;;;;;;;;;;;;;5055174;28;20313;-90
2021/04/11 10:16:13;;;;;;;;;;;;;;;;;;5054970;28;20454;-90
2021/04/11 10:18:57;;;;;;;;;;;;;;;;;;5088693;28;19912;-90
2021/04/11 10:21:27;;;;;;;;;;;;;;;;;;5088136;28;19912;-91
2021/04/11 10:23:53;;;;;;;;;;;;;;;;;;5103713;28;19920;-87
2021/04/11 10:26:34;;;;;;;;;;;;;;;;;;5035546;28;19917;-89
2021/04/11 10:28:59;;;;;;;;;;;;;;;;;;5036310;28;19912;-88
2021/04/11 10:31:43;;;;;;;;;;;;;;;;;;5087533;28;20007;-88
2021/04/11 10:34:08;;;;;;;;;;;;;;;;;;5088157;28;19912;-88
2021/04/11 10:36:36;;;;;;;;;;;;;;;;;;5087713;28;20396;-89
2021/04/11 10:39:20;;;;;;;;;;;;;;;;;;5088029;28;19916;-88
2021/04/11 10:42:04;;;;;;;;;;;;;;;;;;5087943;28;19916;-88
2021/04/11 10:44:39;;;;;;;;;;;;;;;;;;5087945;28;19983;-88
2021/04/11 10:47:23;;;;;;;;;;;;;;;;;;5039837;28;20354;-88
2021/04/11 10:49:57;;;;;;;;;;;;;;;;;;5108444;28;19999;-87
2021/04/11 10:52:23;;;;;;;;;;;;;;;;;;5091505;28;19998;-89
2021/04/11 10:55:00;;;;;;;;;;;;;;;;;;5108218;28;20397;-88
2021/04/11 10:57:36;;;;;;;;;;;;;;;;;;5108374;28;19917;-88
2021/04/11 11:00:19;;;;;;;;;;;;;;;;;;5041141;28;20389;-87
2021/04/11 11:02:54;;;;;;;;;;;;;;;;;;5090982;28;20507;-87
2021/04/11 11:05:19;;;;;;;;;;;;;;;;;;5074610;28;19913;-88
2021/04/11 11:07:44;;;;;;;;;;;;;;;;;;5074245;28;19920;-87
2021/04/11 11:10:09;;;;;;;;;;;;;;;;;;5090620;28;20006;-88
2021/04/11 11:12:41;;;;;;;;;;;;;;;;;;5108036;28;19936;-86
2021/04/11 11:15:07;;;;;;;;;;;;;;;;;;5057246;28;19923;-87
2021/04/11 11:17:32;;;;;;;;;;;;;;;;;;5056934;28;19912;-87
2021/04/11 11:19:57;;;;;;;;;;;;;;;;;;5090490;28;19924;-87
2021/04/11 11:22:26;;;;;;;;;;;;;;;;;;5107133;28;20411;-85
2021/04/11 11:24:52;;;;;;;;;;;;;;;;;;5039831;28;19912;-86
2021/04/11 11:27:25;;;;;;;;;;;;;;;;;;5106767;28;19916;-86
2021/04/11 11:30:09;;;;;;;;;;;;;;;;;;5090120;28;20313;-86
2021/04/11 11:32:53;;;;;;;;;;;;;;;;;;5089943;28;19944;-86
2021/04/11 11:35:18;;;;;;;;;;;;;;;;;;5107061;28;19912;-85
2021/04/11 11:38:02;;;;;;;;;;;;;;;;;;5039570;28;19928;-85
2021/04/11 11:40:31;;;;;;;;;;;;;;;;;;5089879;28;19912;-85
2021/04/11 11:43:00;;;;;;;;;;;;;;;;;;5106954;28;19966;-87
2021/04/11 11:45:44;;;;;;;;;;;;;;;;;;5039736;28;19974;-85
2021/04/11 11:48:18;;;;;;;;;;;;;;;;;;5106541;28;19962;-87
2021/04/11 11:50:59;;;;;;;;;;;;;;;;;;5089568;28;20015;-87
2021/04/11 11:53:26;;;;;;;;;;;;;;;;;;5089766;28;19908;-86
2021/04/11 11:56:01;;;;;;;;;;;;;;;;;;5039661;28;20329;-87
2021/04/11 11:58:35;;;;;;;;;;;;;;;;;;5055918;28;19912;-86
2021/04/11 12:01:05;;;;;;;;;;;;;;;;;;5039633;28;19942;-87
2021/04/11 12:03:34;;;;;;;;;;;;;;;;;;5039404;28;19921;-86
2021/04/11 12:06:02;;;;;;;;;;;;;;;;;;5072958;28;19912;-86
2021/04/11 12:08:34;;;;;;;;;;;;;;;;;;5055825;28;19965;-86
2021/04/11 12:11:00;;;;;;;;;;;;;;;;;;5106667;28;19913;-87
2021/04/11 12:13:34;;;;;;;;;;;;;;;;;;5039992;28;19969;-89
2021/04/11 12:16:17;;;;;;;;;;;;;;;;;;5039667;28;19916;-87
2021/04/11 12:18:54;;;;;;;;;;;;;;;;;;5090412;28;19912;-89
2021/04/11 12:21:21;;;;;;;;;;;;;;;;;;5039491;28;19913;-89
2021/04/11 12:23:46;;;;;;;;;;;;;;;;;;5039496;28;19955;-89
2021/04/11 12:26:16;;;;;;;;;;;;;;;;;;5090204;28;20378;-90
2021/04/11 12:28:42;;;;;;;;;;;;;;;;;;5040051;28;20340;-89
2021/04/11 12:31:11;;;;;;;;;;;;;;;;;;5039390;28;20015;-88
2021/04/11 12:33:51;;;;;;;;;;;;;;;;;;5073644;28;19912;-90
2021/04/11 12:36:28;;;;;;;;;;;;;;;;;;5039677;28;20002;-87
2021/04/11 12:38:54;;;;;;;;;;;;;;;;;;5055995;28;19912;-89
2021/04/11 12:41:32;;;;;;;;;;;;;;;;;;5039102;28;19918;-87
2021/04/11 12:44:16;;;;;;;;;;;;;;;;;;5073062;28;20005;-85
2021/04/11 12:46:43;;;;;;;;;;;;;;;;;;5088812;28;19948;-84
2021/04/11 12:49:14;;;;;;;;;;;;;;;;;;5038651;28;19916;-85
2021/04/11 12:51:48;;;;;;;;;;;;;;;;;;5105549;28;20379;-85
2021/04/11 12:54:14;;;;;;;;;;;;;;;;;;5038617;28;19919;-84
2021/04/11 12:56:40;;;;;;;;;;;;;;;;;;5105701;28;20282;-85
2021/04/11 12:59:12;;;;;;;;;;;;;;;;;;5038326;28;19916;-84
2021/04/11 13:01:57;;;;;;;;;;;;;;;;;;5055449;28;20007;-85
2021/04/11 13:04:39;;;;;;;;;;;;;;;;;;5053557;28;19912;-86
2021/04/11 13:07:14;;;;;;;;;;;;;;;;;;5036757;28;19966;-87
2021/04/11 13:09:58;;;;;;;;;;;;;;;;;;5052060;28;19920;-84
2021/04/11 13:12:32;;;;;;;;;;;;;;;;;;5109722;28;19969;-83
2021/04/11 13:15:02;;;;;;;;;;;;;;;;;;5073724;28;20278;-82
2021/04/11 13:17:31;;;;;;;;;;;;;;;;;;5039170;28;20011;-83
2021/04/11 13:20:02;;;;;;;;;;;;;;;;;;5066280;28;19954;-82
2021/04/11 13:22:32;;;;;;;;;;;;;;;;;;5037856;28;19917;-81
2021/04/11 13:24:57;;;;;;;;;;;;;;;;;;5063040;28;19962;-81
2021/04/11 13:27:33;;;;;;;;;;;;;;;;;;5072382;28;19912;-82
2021/04/11 13:30:10;;;;;;;;;;;;;;;;;;5071593;28;19913;-82
2021/04/11 13:32:45;;;;;;;;;;;;;;;;;;5071707;28;20058;-81
2021/04/11 13:35:15;;;;;;;;;;;;;;;;;;5071732;28;19913;-84
2021/04/11 13:37:42;;;;;;;;;;;;;;;;;;5051192;28;19917;-83
2021/04/11 13:40:08;;;;;;;;;;;;;;;;;;5051952;28;20275;-82
2021/04/11 13:42:44;;;;;;;;;;;;;;;;;;5051372;28;19916;-82
2021/04/11 13:45:11;;;;;;;;;;;;;;;;;;5051999;28;19921;-84
2021/04/11 13:47:41;;;;;;;;;;;;;;;;;;5046744;28;19916;-85
2021/04/11 13:50:25;;;;;;;;;;;;;;;;;;5056199;28;19912;-85
2021/04/11 13:52:54;;;;;;;;;;;;;;;;;;5056309;28;19923;-86
2021/04/11 13:55:21;;;;;;;;;;;;;;;;;;5056125;28;19919;-84
2021/04/11 13:58:01;;;;;;;;;;;;;;;;;;5072539;28;19912;-83
2021/04/11 14:00:34;;;;;;;;;;;;;;;;;;5039724;28;19917;-86
2021/04/11 14:03:09;;;;;;;;;;;;;;;;;;5056004;28;19946;-86
2021/04/11 14:05:35;;;;;;;;;;;;;;;;;;5041278;28;20003;-87
2021/04/11 14:08:00;;;;;;;;;;;;;;;;;;5039825;28;20407;-86
2021/04/11 14:10:30;;;;;;;;;;;;;;;;;;5088739;28;20346;-86
2021/04/11 14:13:07;;;;;;;;;;;;;;;;;;5071549;28;19920;-87
2021/04/11 14:15:37;;;;;;;;;;;;;;;;;;5038602;28;19927;-88
2021/04/11 14:18:10;;;;;;;;;;;;;;;;;;5054941;28;19912;-87
2021/04/11 14:20:38;;;;;;;;;;;;;;;;;;5073502;28;19917;-87
2021/04/11 14:23:07;;;;;;;;;;;;;;;;;;5059211;28;19913;-86
2021/04/11 14:25:40;;;;;;;;;;;;;;;;;;5059378;28;19924;-86
2021/04/11 14:28:11;;;;;;;;;;;;;;;;;;5059385;28;19916;-86
2021/04/11 14:30:59;;;;;;;;;;;;;;;;;;5042028;28;19963;-87
2021/04/11 14:33:31;;;;;;;;;;;;;;;;;;5057893;28;19913;-88
2021/04/11 14:35:57;;;;;;;;;;;;;;;;;;5058071;28;19931;-86
2021/04/11 14:38:40;;;;;;;;;;;;;;;;;;5076135;28;19917;-87
2021/04/11 14:41:07;;;;;;;;;;;;;;;;;;5057763;28;19963;-88
2021/04/11 14:43:41;;;;;;;;;;;;;;;;;;5041638;28;19920;-85
2021/04/11 14:46:08;;;;;;;;;;;;;;;;;;5074567;28;19923;-83
2021/04/11 14:48:34;;;;;;;;;;;;;;;;;;5075539;28;19919;-84
2021/04/11 14:51:07;;;;;;;;;;;;;;;;;;5076150;28;20002;-84
2021/04/11 14:53:33;;;;;;;;;;;;;;;;;;5058520;28;20375;-84
2021/04/11 14:55:58;;;;;;;;;;;;;;;;;;5057716;28;19913;-86
2021/04/11 14:58:42;;;;;;;;;;;;;;;;;;5074828;28;19913;-85
2021/04/11 15:01:09;;;;;;;;;;;;;;;;;;5057493;28;19996;-84
2021/04/11 15:03:42;;;;;;;;;;;;;;;;;;5066371;28;20002;-84
2021/04/11 15:06:13;;;;;;;;;;;;;;;;;;5074805;28;19920;-83
2021/04/11 15:08:40;;;;;;;;;;;;;;;;;;5041297;28;20390;-83
2021/04/11 15:11:13;;;;;;;;;;;;;;;;;;5041928;28;19916;-83
2021/04/11 15:13:57;;;;;;;;;;;;;;;;;;5074998;28;19924;-82
2021/04/11 15:16:35;;;;;;;;;;;;;;;;;;5097379;28;20375;-84
2021/04/11 15:19:19;;;;;;;;;;;;;;;;;;5057810;28;19963;-84
2021/04/11 15:22:03;;;;;;;;;;;;;;;;;;5075981;28;19912;-85
2021/04/11 15:24:47;;;;;;;;;;;;;;;;;;5094472;28;19912;-84
2021/04/11 15:27:12;;;;;;;;;;;;;;;;;;5110749;28;20011;-82
2021/04/11 15:29:40;;;;;;;;;;;;;;;;;;5093429;28;20030;-82
2021/04/11 15:32:10;;;;;;;;;;;;;;;;;;5092140;28;19932;-80
2021/04/11 15:34:35;;;;;;;;;;;;;;;;;;5127534;27;20486;-79
2021/04/11 15:37:19;;;;;;;;;;;;;;;;;;5095105;28;19916;-79
2021/04/11 15:40:00;;;;;;;;;;;;;;;;;;5093075;28;19916;-80
2021/04/11 15:42:43;;;;;;;;;;;;;;;;;;5094438;28;19919;-81
2021/04/11 15:45:15;;;;;;;;;;;;;;;;;;5109478;28;20371;-81
2021/04/11 15:48:01;;;;;;;;;;;;;;;;;;5110211;28;20290;-80
2021/04/11 15:50:32;;;;;;;;;;;;;;;;;;5093153;28;19920;-82
2021/04/11 15:53:00;;;;;;;;;;;;;;;;;;5110407;28;19947;-81
2021/04/11 15:55:44;;;;;;;;;;;;;;;;;;5092846;28;19973;-82
2021/04/11 15:58:35;;;;;;;;;;;;;;;;;;5086678;28;20023;-80
2021/04/11 16:01:01;;;;;;;;;;;;;;;;;;5065211;28;20011;-83
2021/04/11 16:03:27;;;;;;;;;;;;;;;;;;5064298;28;20434;-81
2021/04/11 16:05:57;;;;;;;;;;;;;;;;;;5072566;28;19923;-81
2021/04/11 16:08:23;;;;;;;;;;;;;;;;;;5055847;28;19923;-81
2021/04/11 16:10:48;;;;;;;;;;;;;;;;;;5052522;28;19917;-82
2021/04/11 16:13:13;;;;;;;;;;;;;;;;;;5052035;28;19917;-81
2021/04/11 16:15:42;;;;;;;;;;;;;;;;;;5069332;28;19917;-82
2021/04/11 16:18:17;;;;;;;;;;;;;;;;;;5072847;28;20049;-85
2021/04/11 16:20:48;;;;;;;;;;;;;;;;;;5055672;28;19966;-82
2021/04/11 16:23:32;;;;;;;;;;;;;;;;;;5055822;28;20289;-82
2021/04/11 16:26:07;;;;;;;;;;;;;;;;;;5106884;28;19912;-82
2021/04/11 16:29:04;;;;;;;;;;;;;;;;;;5055185;28;19916;-81
2021/04/11 16:31:48;;;;;;;;;;;;;;;;;;5050735;28;19928;-81
2021/04/11 16:34:17;;;;;;;;;;;;;;;;;;5055449;28;19912;-81
2021/04/11 16:36:48;;;;;;;;;;;;;;;;;;5105874;28;20285;-79
2021/04/11 16:39:29;;;;;;;;;;;;;;;;;;5072146;28;19919;-81
2021/04/11 16:42:06;;;;;;;;;;;;;;;;;;5054372;28;19951;-80
2021/04/11 16:44:44;;;;;;;;;;;;;;;;;;5070748;28;19968;-81
2021/04/11 16:47:22;;;;;;;;;;;;;;;;;;5073412;28;19913;-81
2021/04/11 16:50:02;;;;;;;;;;;;;;;;;;5071903;28;19917;-81
2021/04/11 16:52:31;;;;;;;;;;;;;;;;;;5070819;28;19928;-81
2021/04/11 16:55:01;;;;;;;;;;;;;;;;;;5051630;28;19923;-81
2021/04/11 16:57:29;;;;;;;;;;;;;;;;;;5034894;28;20353;-80
2021/04/11 16:59:54;;;;;;;;;;;;;;;;;;5075980;28;19913;-80
2021/04/11 17:02:37;;;;;;;;;;;;;;;;;;5105043;28;19917;-80
2021/04/11 17:05:08;;;;;;;;;;;;;;;;;;5054656;28;19926;-80
2021/04/11 17:07:45;;;;;;;;;;;;;;;;;;5071368;28;19912;-81
2021/04/11 17:10:29;;;;;;;;;;;;;;;;;;5054078;28;19916;-79
2021/04/11 17:13:00;;;;;;;;;;;;;;;;;;5037655;28;19913;-84
2021/04/11 17:15:26;;;;;;;;;;;;;;;;;;5052994;28;19956;-81
2021/04/11 17:18:02;;;;;;;;;;;;;;;;;;5055649;28;19934;-80
2021/04/11 17:20:27;;;;;;;;;;;;;;;;;;5038053;28;19923;-81
2021/04/11 17:23:12;;;;;;;;;;;;;;;;;;5055448;28;19912;-81